• Join FlightAware (Why Join?)
  • Login
  • US Flag 
07:11AM EDT


 

Airport Tracker/Info


-or-


 

Live Flight TrackerFlight Track Log ✈ N54DD ✈ 09-May-2013 ✈ KOAK - KVNY

Flight Track Log - Related Links

Times and Time Zones

All times are in EDT time to prevent confusion due to time zone crossing. See the N54DD flight status page for this flight to view local times or setup timezone preferences in your user account.

Time Position Orientation Groundspeed Altitude Reporting Facility
EDT Latitude Longitude Course Direction KTS MPH feet Rate Location/Type
06:32AM 37.7167 -122.2500 150° Southeast 169 194 2,300  Level Northern Cal TRACON
06:32AM 37.6656 -122.2144 151° Southeast 258 297 3,700 2,040 Climbing Oakland Center
06:33AM 37.6017 -122.1572 145° Southeast 277 319 6,200 2,220 Climbing Oakland Center
06:34AM 37.5428 -122.0867 136° Southeast 288 331 8,200 2,400 Climbing Oakland Center
06:35AM 37.4800 -122.0203 140° Southeast 295 339 11,000 2,400 Climbing Oakland Center
06:36AM 37.4144 -121.9556 142° Southeast 303 349 13,000 1,980 Climbing Oakland Center
06:37AM 37.3623 -122.3850 150° Southeast  Level FlightAware Approximate
06:37AM 37.3414 -121.8969 147° Southeast 311 358 15,000  Level Oakland Center
06:38AM 37.2681 -121.8308 144° Southeast 323 372 16,900 1,860 Climbing Oakland Center
06:39AM 37.1883 -121.7572 144° Southeast 328 377 18,800 1,860 Climbing Oakland Center
06:40AM 37.1136 -121.6861 143° Southeast 337 388 20,700 1,800 Climbing Oakland Center
06:41AM 37.0422 -121.6233 145° Southeast 342 394 22,500 1,800 Climbing Oakland Center
06:42AM 36.9664 -121.5531 143° Southeast 340 391 24,400 1,860 Climbing Oakland Center
06:43AM 36.8897 -121.4808 143° Southeast 346 398 26,300 1,260 Climbing Oakland Center
06:44AM 36.8156 -121.4094 142° Southeast 359 413 27,000 300 Climbing Oakland Center
06:45AM 36.7267 -121.3300 144° Southeast 394 453 27,000  Level Oakland Center
06:46AM 36.6322 -121.2483 145° Southeast 411 473 27,000  Level Oakland Center
06:47AM 36.5406 -121.1600 142° Southeast 416 479 27,000  Level Oakland Center
06:48AM 36.4472 -121.0758 144° Southeast 415 478 27,000  Level Oakland Center
06:49AM 36.3544 -120.9914 144° Southeast 414 476 27,000  Level Oakland Center
06:50AM 36.2614 -120.9047 143° Southeast 418 481 27,000  Level Oakland Center
06:51AM 36.1689 -120.8214 144° Southeast 414 476 27,000  Level Oakland Center
06:52AM 36.0764 -120.7372 144° Southeast 413 475 27,000  Level Oakland Center
06:53AM 35.9833 -120.6536 144° Southeast 413 475 27,000  Level Oakland Center
06:54AM 35.8906 -120.5703 144° Southeast 413 475 27,000  Level Oakland Center
06:55AM 35.8006 -120.4833 142° Southeast 411 473 27,000  Level Oakland Center
06:56AM 35.7236 -120.3775 132° Southeast 411 473 27,000  Level Oakland Center
06:57AM 35.6450 -120.2750 133° Southeast 410 472 27,000  Level Oakland Center
06:58AM 35.5647 -120.1719 134° Southeast 412 474 27,000  Level Oakland Center
06:59AM 35.4842 -120.0689 134° Southeast 412 474 27,000  Level Oakland Center
07:00AM 35.4028 -119.9656 134° Southeast 415 478 27,000  Level Oakland Center
07:01AM 35.3208 -119.8622 134° Southeast 419 482 27,000  Level Los Angeles Center
07:02AM 35.2403 -119.7603 134° Southeast 416 479 27,000  Level Los Angeles Center
07:03AM 35.1597 -119.6586 134° Southeast 415 478 27,000 -600 Level Los Angeles Center
07:04AM 35.0769 -119.5536 134° Southeast 426 490 25,900 -1,200 Descending Los Angeles Center
07:05AM 34.9950 -119.4528 135° Southeast 420 483 24,700 -1,200 Descending Los Angeles Center
07:06AM 34.9167 -119.3531 134° Southeast 409 471 23,500 -1,320 Descending Los Angeles Center
07:07AM 34.8372 -119.2550 135° Southeast 408 470 22,100 -1,620 Descending Los Angeles Center
07:08AM 34.7606 -119.1603 135° Southeast 396 456 20,300 -1,680 Descending Los Angeles Center
07:09AM 34.6925 -119.0769 135° Southeast 390 449 18,800 -1,620 Descending Los Angeles Center
07:10AM 34.6178 -118.9861 135° Southeast 384 442 17,100 -1,920 Descending Los Angeles Center
07:11AM 34.5472 -118.9014 135° Southeast 357 411 15,000 -2,340 Descending Los Angeles Center
07:12AM 34.4822 -118.8200 134° Southeast 338 389 12,400 -2,760 Descending Los Angeles Center
07:13AM 34.4233 -118.7456 134° Southeast 303 349 9,500 -2,880 Descending Los Angeles Center
07:14AM 34.3675 -118.6817 137° Southeast 277 319 6,700 -2,340 Descending Los Angeles Center
07:15AM 34.3181 -118.6192 134° Southeast 266 306 4,900 -1,560 Descending Los Angeles Center
07:16AM 34.2833 -118.5833 140° Southeast 184 212 4,000 -1,260 Descending Southern California TRACON